首页
METAR-TAF:

METAR-TAF

机场 :

科利佐沃國際機場

葉卡捷琳堡, 俄罗斯

纬度: 56-50N, 经度: 060-38E, 海拔: 237米

当前天气观测

该预报发布于21分钟前的13:30 UTC
风速10节,风向西
温度 -1°C
湿度 86%
气压 1020 hPa
能见度10公里或以上
阴天层高于1300英尺, 积雨云.

METAR: USSS 171330Z 26005MPS 9999 OVC013CB M01/M03 Q1020 R26R/150040 NOSIG RMK QFE744/0992

时间: 18:51 (13:51 UTC)

预报

该预报发布于2小时和52分钟前的10:59 UTC
预报有效从17日的 12点(UTC)到 18日的 12点(UTC)
风速10节,风向西,有时为23节阵风
能見度: 6000
多云层高于1100英尺
散云层高于2000英尺, 积雨云.
小阵雪
从 17日的 1600点(UTC)
风速6节,风向西转西南,有时为19节阵风
能見度: 3100
阴天层高于1100英尺
小雪

TAF: USSS 171059Z 1712/1812 26005G12MPS 6000 -SHSN BKN011 SCT020CB FM171600 25003G10MPS 3100 -SN OVC011

超过4000个机场的气象观测和天气预报(METAR&TAF报告)。

可查询的气象台以黄色和红色小点在地图上表示。

将鼠标移到小点上方,可查看气象台名称。

然后点击查看天气观测和预报。

如需切换地图:点击带黑十字的绿色按钮放大地图;点击带横线的绿色按钮缩小地图;或者点击绿色箭头查看邻近地区的地图。


METAR-TAF: